Terminal Aerodrome Forecast
Issued by NWS San Angelo, TX

Current Version | Previous Version | Text Only | Print | Product List | Glossary On
Versions: 1 2 3 4 5 6 7 8 9 10 11 12 13 14 15 16
000
FTUS44 KSJT 251732
TAFSJT
TAF
KSJT 251732Z 2518/2618 06007KT 5SM -RA SCT015 OVC035
      TEMPO 2518/2521 3SM -RA BKN015
     FM252100 03008KT 4SM SHRA BR VCTS OVC007CB
     FM260400 02009G17KT 6SM -SHRA OVC007=

USA.gov is the U.S. government's official web portal to all federal, state and local government web resources and services.